sensor_id;sensor_type;location;lat;lon;timestamp;pressure;altitude;pressure_sealevel;temperature
45565;BMP280;31280;40.408;17.282;2022-12-18T00:00:47;102030.34;;;14.42
45565;BMP280;31280;40.408;17.282;2022-12-18T00:03:16;102019.47;;;14.46
45565;BMP280;31280;40.408;17.282;2022-12-18T00:05:49;102025.22;;;14.51
45565;BMP280;31280;40.408;17.282;2022-12-18T00:08:15;102032.56;;;14.54
45565;BMP280;31280;40.408;17.282;2022-12-18T00:10:42;102028.25;;;14.57
45565;BMP280;31280;40.408;17.282;2022-12-18T00:13:08;102019.41;;;14.49
45565;BMP280;31280;40.408;17.282;2022-12-18T00:15:35;102035.59;;;14.60
45565;BMP280;31280;40.408;17.282;2022-12-18T00:18:00;102036.72;;;14.62
45565;BMP280;31280;40.408;17.282;2022-12-18T00:20:26;102026.31;;;14.57
45565;BMP280;31280;40.408;17.282;2022-12-18T00:22:52;102039.41;;;14.66
45565;BMP280;31280;40.408;17.282;2022-12-18T00:25:18;102034.72;;;14.66
45565;BMP280;31280;40.408;17.282;2022-12-18T00:27:44;102040.13;;;14.66
45565;BMP280;31280;40.408;17.282;2022-12-18T00:30:10;102027.09;;;14.58
45565;BMP280;31280;40.408;17.282;2022-12-18T00:32:36;102053.31;;;14.68
45565;BMP280;31280;40.408;17.282;2022-12-18T00:35:03;102041.78;;;14.60
45565;BMP280;31280;40.408;17.282;2022-12-18T00:37:29;102054.06;;;14.68
45565;BMP280;31280;40.408;17.282;2022-12-18T00:39:55;102062.22;;;14.68
45565;BMP280;31280;40.408;17.282;2022-12-18T00:42:20;102049.88;;;14.64
45565;BMP280;31280;40.408;17.282;2022-12-18T00:45:05;102056.09;;;14.61
45565;BMP280;31280;40.408;17.282;2022-12-18T00:47:31;102059.22;;;14.59
45565;BMP280;31280;40.408;17.282;2022-12-18T00:49:56;102062.75;;;14.56
45565;BMP280;31280;40.408;17.282;2022-12-18T00:52:22;102054.66;;;14.53
45565;BMP280;31280;40.408;17.282;2022-12-18T00:54:49;102066.72;;;14.48
45565;BMP280;31280;40.408;17.282;2022-12-18T00:57:14;102052.13;;;14.36
45565;BMP280;31280;40.408;17.282;2022-12-18T00:59:40;102063.69;;;14.43
45565;BMP280;31280;40.408;17.282;2022-12-18T01:02:06;102070.66;;;14.40
45565;BMP280;31280;40.408;17.282;2022-12-18T01:04:32;102077.25;;;14.40
45565;BMP280;31280;40.408;17.282;2022-12-18T01:06:57;102076.06;;;14.40
45565;BMP280;31280;40.408;17.282;2022-12-18T01:09:23;102077.63;;;14.41
45565;BMP280;31280;40.408;17.282;2022-12-18T01:11:49;102079.16;;;14.42
45565;BMP280;31280;40.408;17.282;2022-12-18T01:14:15;102079.59;;;14.41
45565;BMP280;31280;40.408;17.282;2022-12-18T01:16:40;102083.81;;;14.42
45565;BMP280;31280;40.408;17.282;2022-12-18T01:19:08;102089.63;;;14.40
45565;BMP280;31280;40.408;17.282;2022-12-18T01:21:34;102089.25;;;14.39
45565;BMP280;31280;40.408;17.282;2022-12-18T01:23:59;102086.53;;;14.39
45565;BMP280;31280;40.408;17.282;2022-12-18T01:26:26;102089.25;;;14.39
45565;BMP280;31280;40.408;17.282;2022-12-18T01:28:55;102090.09;;;14.36
45565;BMP280;31280;40.408;17.282;2022-12-18T01:31:31;102078.97;;;14.27
45565;BMP280;31280;40.408;17.282;2022-12-18T01:33:59;102092.03;;;14.35
45565;BMP280;31280;40.408;17.282;2022-12-18T01:36:28;102078.59;;;14.25
45565;BMP280;31280;40.408;17.282;2022-12-18T01:38:54;102091.66;;;14.33
45565;BMP280;31280;40.408;17.282;2022-12-18T01:41:24;102107.13;;;14.33
45565;BMP280;31280;40.408;17.282;2022-12-18T01:43:53;102101.78;;;14.29
45565;BMP280;31280;40.408;17.282;2022-12-18T01:46:21;102086.38;;;14.19
45565;BMP280;31280;40.408;17.282;2022-12-18T01:48:50;102099.13;;;14.26
45565;BMP280;31280;40.408;17.282;2022-12-18T01:51:18;102091.75;;;14.23
45565;BMP280;31280;40.408;17.282;2022-12-18T01:53:44;102090.31;;;14.15
45565;BMP280;31280;40.408;17.282;2022-12-18T01:56:16;102102.22;;;14.24
45565;BMP280;31280;40.408;17.282;2022-12-18T02:01:11;102104.94;;;14.21
45565;BMP280;31280;40.408;17.282;2022-12-18T02:03:37;102107.31;;;14.19
45565;BMP280;31280;40.408;17.282;2022-12-18T02:06:15;102114.28;;;14.16
45565;BMP280;31280;40.408;17.282;2022-12-18T02:17:17;102126.00;;;14.07
45565;BMP280;31280;40.408;17.282;2022-12-18T02:20:12;102119.50;;;13.97
45565;BMP280;31280;40.408;17.282;2022-12-18T02:28:23;102120.63;;;14.03
45565;BMP280;31280;40.408;17.282;2022-12-18T02:30:54;102122.94;;;14.01
45565;BMP280;31280;40.408;17.282;2022-12-18T02:33:22;102128.38;;;14.01
45565;BMP280;31280;40.408;17.282;2022-12-18T02:35:50;102124.88;;;14.01
45565;BMP280;31280;40.408;17.282;2022-12-18T02:38:17;102136.88;;;14.03
45565;BMP280;31280;40.408;17.282;2022-12-18T02:40:43;102113.72;;;13.95
45565;BMP280;31280;40.408;17.282;2022-12-18T02:43:12;102131.47;;;14.03
45565;BMP280;31280;40.408;17.282;2022-12-18T02:45:55;102117.56;;;13.98
45565;BMP280;31280;40.408;17.282;2022-12-18T02:48:33;102107.59;;;13.84
45565;BMP280;31280;40.408;17.282;2022-12-18T02:51:14;102127.28;;;13.92
45565;BMP280;31280;40.408;17.282;2022-12-18T02:56:21;102141.69;;;13.82
45565;BMP280;31280;40.408;17.282;2022-12-18T02:59:04;102136.28;;;13.79
45565;BMP280;31280;40.408;17.282;2022-12-18T03:04:20;102143.94;;;13.90
45565;BMP280;31280;40.408;17.282;2022-12-18T03:06:53;102138.88;;;13.92
45565;BMP280;31280;40.408;17.282;2022-12-18T03:09:29;102146.25;;;13.92
45565;BMP280;31280;40.408;17.282;2022-12-18T03:12:02;102128.56;;;13.74
45565;BMP280;31280;40.408;17.282;2022-12-18T03:15:36;102143.56;;;13.88
45565;BMP280;31280;40.408;17.282;2022-12-18T03:17:36;102152.41;;;13.92
45565;BMP280;31280;40.408;17.282;2022-12-18T03:20:12;102144.66;;;13.94
45565;BMP280;31280;40.408;17.282;2022-12-18T03:22:38;102155.50;;;13.94
45565;BMP280;31280;40.408;17.282;2022-12-18T03:25:07;102156.34;;;13.91
45565;BMP280;31280;40.408;17.282;2022-12-18T03:27:36;102157.09;;;13.88
45565;BMP280;31280;40.408;17.282;2022-12-18T03:30:07;102152.50;;;13.82
45565;BMP280;31280;40.408;17.282;2022-12-18T03:32:42;102157.88;;;13.89
45565;BMP280;31280;40.408;17.282;2022-12-18T03:35:11;102158.25;;;13.91
45565;BMP280;31280;40.408;17.282;2022-12-18T03:37:38;102159.78;;;13.95
45565;BMP280;31280;40.408;17.282;2022-12-18T03:40:05;102150.09;;;13.94
45565;BMP280;31280;40.408;17.282;2022-12-18T03:42:52;102165.47;;;14.04
45565;BMP280;31280;40.408;17.282;2022-12-18T03:45:35;102170.13;;;14.07
45565;BMP280;31280;40.408;17.282;2022-12-18T03:55:43;102173.56;;;14.11
45565;BMP280;31280;40.408;17.282;2022-12-18T03:58:15;102165.13;;;14.02
45565;BMP280;31280;40.408;17.282;2022-12-18T04:00:43;102185.94;;;14.12
45565;BMP280;31280;40.408;17.282;2022-12-18T04:03:10;102188.66;;;14.12
45565;BMP280;31280;40.408;17.282;2022-12-18T04:05:37;102158.59;;;13.93
45565;BMP280;31280;40.408;17.282;2022-12-18T04:08:03;102191.75;;;14.14
45565;BMP280;31280;40.408;17.282;2022-12-18T04:10:30;102186.31;;;14.14
45565;BMP280;31280;40.408;17.282;2022-12-18T04:12:56;102191.75;;;14.14
45565;BMP280;31280;40.408;17.282;2022-12-18T04:15:23;102195.25;;;14.11
45565;BMP280;31280;40.408;17.282;2022-12-18T04:17:49;102198.75;;;14.08
45565;BMP280;31280;40.408;17.282;2022-12-18T04:20:16;102205.75;;;14.09
45565;BMP280;31280;40.408;17.282;2022-12-18T04:22:42;102201.47;;;14.08
45565;BMP280;31280;40.408;17.282;2022-12-18T04:25:08;102203.38;;;14.11
45565;BMP280;31280;40.408;17.282;2022-12-18T04:27:34;102196.84;;;14.05
45565;BMP280;31280;40.408;17.282;2022-12-18T04:29:59;102193.03;;;14.03
45565;BMP280;31280;40.408;17.282;2022-12-18T04:32:25;102204.91;;;14.12
45565;BMP280;31280;40.408;17.282;2022-12-18T04:34:51;102210.34;;;14.12
45565;BMP280;31280;40.408;17.282;2022-12-18T04:37:17;102207.25;;;14.10
45565;BMP280;31280;40.408;17.282;2022-12-18T04:39:43;102213.09;;;14.09
45565;BMP280;31280;40.408;17.282;2022-12-18T04:42:08;102217.34;;;14.06
45565;BMP280;31280;40.408;17.282;2022-12-18T04:44:34;102218.91;;;14.07
45565;BMP280;31280;40.408;17.282;2022-12-18T04:46:59;102224.34;;;14.07
45565;BMP280;31280;40.408;17.282;2022-12-18T04:49:25;102227.44;;;14.02
45565;BMP280;31280;40.408;17.282;2022-12-18T04:51:51;102236.78;;;13.94
45565;BMP280;31280;40.408;17.282;2022-12-18T04:54:17;102240.69;;;13.93
45565;BMP280;31280;40.408;17.282;2022-12-18T04:56:42;102236.03;;;13.87
45565;BMP280;31280;40.408;17.282;2022-12-18T04:59:08;102238.00;;;13.90
45565;BMP280;31280;40.408;17.282;2022-12-18T05:01:33;102239.13;;;13.92
45565;BMP280;31280;40.408;17.282;2022-12-18T05:04:00;102241.47;;;13.87
45565;BMP280;31280;40.408;17.282;2022-12-18T05:06:25;102255.38;;;13.92
45565;BMP280;31280;40.408;17.282;2022-12-18T05:08:51;102260.06;;;13.92
45565;BMP280;31280;40.408;17.282;2022-12-18T05:11:17;102264.25;;;13.93
45565;BMP280;31280;40.408;17.282;2022-12-18T05:13:44;102241.94;;;13.79
45565;BMP280;31280;40.408;17.282;2022-12-18T05:16:11;102250.78;;;13.82
45565;BMP280;31280;40.408;17.282;2022-12-18T05:18:37;102267.41;;;13.88
45565;BMP280;31280;40.408;17.282;2022-12-18T05:21:03;102208.78;;;13.47
45565;BMP280;31280;40.408;17.282;2022-12-18T05:23:29;102272.84;;;13.84
45565;BMP280;31280;40.408;17.282;2022-12-18T05:26:00;102278.63;;;13.86
45565;BMP280;31280;40.408;17.282;2022-12-18T05:28:27;102286.41;;;13.84
45565;BMP280;31280;40.408;17.282;2022-12-18T05:30:56;102283.69;;;13.84
45565;BMP280;31280;40.408;17.282;2022-12-18T05:33:24;102292.59;;;13.85
45565;BMP280;31280;40.408;17.282;2022-12-18T05:35:55;102282.19;;;13.77
45565;BMP280;31280;40.408;17.282;2022-12-18T05:38:22;102289.50;;;13.83
45565;BMP280;31280;40.408;17.282;2022-12-18T05:40:49;102297.25;;;13.84
45565;BMP280;31280;40.408;17.282;2022-12-18T05:43:15;102295.66;;;13.83
45565;BMP280;31280;40.408;17.282;2022-12-18T05:45:41;102292.56;;;13.81
45565;BMP280;31280;40.408;17.282;2022-12-18T05:48:08;102308.88;;;13.78
45565;BMP280;31280;40.408;17.282;2022-12-18T05:50:35;102292.66;;;13.68
45565;BMP280;31280;40.408;17.282;2022-12-18T05:53:02;102308.91;;;13.71
45565;BMP280;31280;40.408;17.282;2022-12-18T05:55:28;102308.13;;;13.71
45565;BMP280;31280;40.408;17.282;2022-12-18T05:57:54;102310.44;;;13.69
45565;BMP280;31280;40.408;17.282;2022-12-18T06:00:20;102318.97;;;13.71
45565;BMP280;31280;40.408;17.282;2022-12-18T06:02:49;102310.44;;;13.72
45565;BMP280;31280;40.408;17.282;2022-12-18T06:05:15;102291.91;;;13.57
45565;BMP280;31280;40.408;17.282;2022-12-18T06:07:40;102318.19;;;13.74
45565;BMP280;31280;40.408;17.282;2022-12-18T06:10:07;102304.28;;;13.65
45565;BMP280;31280;40.408;17.282;2022-12-18T06:12:33;102318.97;;;13.74
45565;BMP280;31280;40.408;17.282;2022-12-18T06:15:01;102325.91;;;13.72
45565;BMP280;31280;40.408;17.282;2022-12-18T06:17:28;102327.09;;;13.74
45565;BMP280;31280;40.408;17.282;2022-12-18T06:19:55;102304.28;;;13.65
45565;BMP280;31280;40.408;17.282;2022-12-18T06:22:21;102325.13;;;13.78
45565;BMP280;31280;40.408;17.282;2022-12-18T06:24:46;102317.03;;;13.68
45565;BMP280;31280;40.408;17.282;2022-12-18T06:27:12;102338.28;;;13.80
45565;BMP280;31280;40.408;17.282;2022-12-18T06:29:38;102340.59;;;13.84
45565;BMP280;31280;40.408;17.282;2022-12-18T06:32:04;102336.69;;;13.85
45565;BMP280;31280;40.408;17.282;2022-12-18T06:34:31;102325.50;;;13.77
45565;BMP280;31280;40.408;17.282;2022-12-18T06:36:58;102343.66;;;13.86
45565;BMP280;31280;40.408;17.282;2022-12-18T06:39:24;102343.66;;;13.83
45565;BMP280;31280;40.408;17.282;2022-12-18T06:41:50;102336.34;;;13.77
45565;BMP280;31280;40.408;17.282;2022-12-18T06:44:15;102349.91;;;13.80
45565;BMP280;31280;40.408;17.282;2022-12-18T06:46:41;102353.75;;;13.76
45565;BMP280;31280;40.408;17.282;2022-12-18T06:49:07;102349.16;;;13.66
45565;BMP280;31280;40.408;17.282;2022-12-18T06:51:34;102351.47;;;13.64
45565;BMP280;31280;40.408;17.282;2022-12-18T06:54:00;102365.00;;;13.64
45565;BMP280;31280;40.408;17.282;2022-12-18T06:56:26;102381.66;;;13.73
45565;BMP280;31280;40.408;17.282;2022-12-18T06:58:52;102383.97;;;13.74
45565;BMP280;31280;40.408;17.282;2022-12-18T07:01:18;102386.28;;;13.79
45565;BMP280;31280;40.408;17.282;2022-12-18T07:03:44;102391.66;;;13.82
45565;BMP280;31280;40.408;17.282;2022-12-18T07:06:18;102389.34;;;13.78
45565;BMP280;31280;40.408;17.282;2022-12-18T07:08:45;102397.88;;;13.80
45565;BMP280;31280;40.408;17.282;2022-12-18T07:11:11;102405.97;;;13.86
45565;BMP280;31280;40.408;17.282;2022-12-18T07:13:37;102402.50;;;13.89
45565;BMP280;31280;40.408;17.282;2022-12-18T07:16:09;102418.31;;;14.01
45565;BMP280;31280;40.408;17.282;2022-12-18T07:18:35;102397.09;;;13.89
45565;BMP280;31280;40.408;17.282;2022-12-18T07:21:11;102421.34;;;14.10
45565;BMP280;31280;40.408;17.282;2022-12-18T07:23:38;102426.03;;;14.13
45565;BMP280;31280;40.408;17.282;2022-12-18T07:26:06;102425.63;;;14.14
45565;BMP280;31280;40.408;17.282;2022-12-18T07:28:32;102424.06;;;14.17
45565;BMP280;31280;40.408;17.282;2022-12-18T07:31:20;102433.69;;;14.21
45565;BMP280;31280;40.408;17.282;2022-12-18T07:33:46;102438.75;;;14.26
45565;BMP280;31280;40.408;17.282;2022-12-18T07:36:12;102435.28;;;14.26
45565;BMP280;31280;40.408;17.282;2022-12-18T07:38:38;102430.59;;;14.30
45565;BMP280;31280;40.408;17.282;2022-12-18T07:41:12;102427.88;;;14.33
45565;BMP280;31280;40.408;17.282;2022-12-18T07:43:39;102442.88;;;14.51
45565;BMP280;31280;40.408;17.282;2022-12-18T07:46:06;102447.91;;;14.53
45565;BMP280;31280;40.408;17.282;2022-12-18T07:48:32;102443.25;;;14.60
45565;BMP280;31280;40.408;17.282;2022-12-18T07:50:59;102435.47;;;14.55
45565;BMP280;31280;40.408;17.282;2022-12-18T07:53:25;102453.59;;;14.72
45565;BMP280;31280;40.408;17.282;2022-12-18T07:55:58;102442.03;;;14.61
45565;BMP280;31280;40.408;17.282;2022-12-18T07:58:25;102454.81;;;14.64
45565;BMP280;31280;40.408;17.282;2022-12-18T08:00:51;102461.00;;;14.68
45565;BMP280;31280;40.408;17.282;2022-12-18T08:03:18;102456.31;;;14.72
45565;BMP280;31280;40.408;17.282;2022-12-18T08:05:44;102453.94;;;14.77
45565;BMP280;31280;40.408;17.282;2022-12-18T08:08:09;102456.28;;;14.79
45565;BMP280;31280;40.408;17.282;2022-12-18T08:10:35;102464.81;;;14.81
45565;BMP280;31280;40.408;17.282;2022-12-18T08:13:01;102464.75;;;14.84
45565;BMP280;31280;40.408;17.282;2022-12-18T08:15:27;102470.53;;;14.90
45565;BMP280;31280;40.408;17.282;2022-12-18T08:17:56;102474.00;;;14.94
45565;BMP280;31280;40.408;17.282;2022-12-18T08:20:22;102473.63;;;14.92
45565;BMP280;31280;40.408;17.282;2022-12-18T08:22:50;102482.50;;;14.96
45565;BMP280;31280;40.408;17.282;2022-12-18T08:25:16;102486.41;;;14.98
45565;BMP280;31280;40.408;17.282;2022-12-18T08:27:42;102488.72;;;14.99
45565;BMP280;31280;40.408;17.282;2022-12-18T08:30:08;102475.56;;;14.95
45565;BMP280;31280;40.408;17.282;2022-12-18T08:32:34;102493.69;;;15.04
45565;BMP280;31280;40.408;17.282;2022-12-18T08:35:00;102499.50;;;15.06
45565;BMP280;31280;40.408;17.282;2022-12-18T08:37:26;102493.34;;;15.02
45565;BMP280;31280;40.408;17.282;2022-12-18T08:39:51;102506.44;;;15.14
45565;BMP280;31280;40.408;17.282;2022-12-18T08:42:17;102507.19;;;15.18
45565;BMP280;31280;40.408;17.282;2022-12-18T08:45:02;102509.47;;;15.23
45565;BMP280;31280;40.408;17.282;2022-12-18T08:47:28;102523.06;;;15.23
45565;BMP280;31280;40.408;17.282;2022-12-18T08:49:54;102517.97;;;15.28
45565;BMP280;31280;40.408;17.282;2022-12-18T08:52:20;102520.25;;;15.33
45565;BMP280;31280;40.408;17.282;2022-12-18T08:54:46;102527.22;;;15.38
45565;BMP280;31280;40.408;17.282;2022-12-18T08:57:12;102527.94;;;15.42
45565;BMP280;31280;40.408;17.282;2022-12-18T08:59:37;102527.94;;;15.45
45565;BMP280;31280;40.408;17.282;2022-12-18T09:02:03;102526.75;;;15.43
45565;BMP280;31280;40.408;17.282;2022-12-18T09:04:29;102513.28;;;15.36
45565;BMP280;31280;40.408;17.282;2022-12-18T09:06:56;102522.50;;;15.45
45565;BMP280;31280;40.408;17.282;2022-12-18T09:09:22;102520.13;;;15.51
45565;BMP280;31280;40.408;17.282;2022-12-18T09:11:47;102509.25;;;15.51
45565;BMP280;31280;40.408;17.282;2022-12-18T09:14:13;102529.28;;;15.67
45565;BMP280;31280;40.408;17.282;2022-12-18T09:16:39;102533.50;;;15.71
45565;BMP280;31280;40.408;17.282;2022-12-18T09:19:05;102531.13;;;15.73
45565;BMP280;31280;40.408;17.282;2022-12-18T09:21:34;102531.88;;;15.81
45565;BMP280;31280;40.408;17.282;2022-12-18T09:24:04;102525.16;;;15.88
45565;BMP280;31280;40.408;17.282;2022-12-18T09:26:30;102522.81;;;15.90
45565;BMP280;31280;40.408;17.282;2022-12-18T09:28:56;102508.94;;;15.85
45565;BMP280;31280;40.408;17.282;2022-12-18T09:31:23;102518.09;;;15.98
45565;BMP280;31280;40.408;17.282;2022-12-18T09:33:49;102528.22;;;15.97
45565;BMP280;31280;40.408;17.282;2022-12-18T09:36:16;102525.81;;;16.03
45565;BMP280;31280;40.408;17.282;2022-12-18T09:38:43;102527.34;;;16.04
45565;BMP280;31280;40.408;17.282;2022-12-18T09:41:47;102523.44;;;16.05
45565;BMP280;31280;40.408;17.282;2022-12-18T09:44:32;102527.28;;;16.11
45565;BMP280;31280;40.408;17.282;2022-12-18T09:49:33;102524.50;;;16.17
45565;BMP280;31280;40.408;17.282;2022-12-18T09:52:49;102523.31;;;16.18
45565;BMP280;31280;40.408;17.282;2022-12-18T09:54:56;102528.31;;;16.23
45565;BMP280;31280;40.408;17.282;2022-12-18T09:57:24;102530.56;;;16.28
45565;BMP280;31280;40.408;17.282;2022-12-18T09:59:56;102522.75;;;16.30
45565;BMP280;31280;40.408;17.282;2022-12-18T10:02:25;102534.34;;;16.34
45565;BMP280;31280;40.408;17.282;2022-12-18T10:07:38;102531.53;;;16.44
45565;BMP280;31280;40.408;17.282;2022-12-18T10:10:37;102526.06;;;16.48
45565;BMP280;31280;40.408;17.282;2022-12-18T10:21:09;102525.50;;;16.60
45565;BMP280;31280;40.408;17.282;2022-12-18T10:23:58;102532.06;;;16.62
45565;BMP280;31280;40.408;17.282;2022-12-18T10:26:27;102526.59;;;16.66
45565;BMP280;31280;40.408;17.282;2022-12-18T10:28:53;102528.50;;;16.69
45565;BMP280;31280;40.408;17.282;2022-12-18T10:31:21;102527.31;;;16.70
45565;BMP280;31280;40.408;17.282;2022-12-18T10:33:48;102526.19;;;16.67
45565;BMP280;31280;40.408;17.282;2022-12-18T10:36:14;102525.78;;;16.69
45565;BMP280;31280;40.408;17.282;2022-12-18T10:38:40;102529.09;;;16.79
45565;BMP280;31280;40.408;17.282;2022-12-18T10:41:24;102534.94;;;16.78
45565;BMP280;31280;40.408;17.282;2022-12-18T10:44:16;102522.88;;;16.82
45565;BMP280;31280;40.408;17.282;2022-12-18T10:46:44;102528.59;;;16.88
45565;BMP280;31280;40.408;17.282;2022-12-18T10:49:23;102505.44;;;16.76
45565;BMP280;31280;40.408;17.282;2022-12-18T10:51:50;102525.38;;;16.96
45565;BMP280;31280;40.408;17.282;2022-12-18T10:54:22;102520.63;;;17.00
45565;BMP280;31280;40.408;17.282;2022-12-18T10:56:49;102526.06;;;17.00
45565;BMP280;31280;40.408;17.282;2022-12-18T10:59:16;102524.47;;;17.02
45565;BMP280;31280;40.408;17.282;2022-12-18T11:04:29;102523.75;;;16.99
45565;BMP280;31280;40.408;17.282;2022-12-18T11:07:04;102526.78;;;17.04
45565;BMP280;31280;40.408;17.282;2022-12-18T11:09:32;102520.50;;;17.07
45565;BMP280;31280;40.408;17.282;2022-12-18T11:12:00;102522.03;;;17.08
45565;BMP280;31280;40.408;17.282;2022-12-18T11:14:33;102513.66;;;16.99
45565;BMP280;31280;40.408;17.282;2022-12-18T11:17:00;102518.88;;;17.13
45565;BMP280;31280;40.408;17.282;2022-12-18T11:19:37;102526.16;;;17.19
45565;BMP280;31280;40.408;17.282;2022-12-18T11:22:25;102521.03;;;17.25
45565;BMP280;31280;40.408;17.282;2022-12-18T11:25:18;102521.03;;;17.25
45565;BMP280;31280;40.408;17.282;2022-12-18T11:27:58;102524.44;;;17.28
45565;BMP280;31280;40.408;17.282;2022-12-18T11:30:32;102501.94;;;17.25
45565;BMP280;31280;40.408;17.282;2022-12-18T11:32:59;102527.88;;;17.32
45565;BMP280;31280;40.408;17.282;2022-12-18T11:35:41;102526.94;;;17.42
45565;BMP280;31280;40.408;17.282;2022-12-18T11:38:24;102518.69;;;17.46
45565;BMP280;31280;40.408;17.282;2022-12-18T11:40:56;102525.75;;;17.43
45565;BMP280;31280;40.408;17.282;2022-12-18T11:43:34;102519.81;;;17.48
45565;BMP280;31280;40.408;17.282;2022-12-18T11:49:01;102527.41;;;17.60
45565;BMP280;31280;40.408;17.282;2022-12-18T11:51:37;102509.97;;;17.54
45565;BMP280;31280;40.408;17.282;2022-12-18T11:54:12;102517.91;;;17.68
45565;BMP280;31280;40.408;17.282;2022-12-18T11:59:59;102531.63;;;17.84
45565;BMP280;31280;40.408;17.282;2022-12-18T12:08:02;102527.50;;;17.95
45565;BMP280;31280;40.408;17.282;2022-12-18T12:16:39;102523.94;;;17.79
45565;BMP280;31280;40.408;17.282;2022-12-18T12:21:47;102529.25;;;17.85
45565;BMP280;31280;40.408;17.282;2022-12-18T12:27:06;102537.78;;;18.07
45565;BMP280;31280;40.408;17.282;2022-12-18T12:32:32;102532.34;;;18.26
45565;BMP280;31280;40.408;17.282;2022-12-18T12:40:23;102516.94;;;17.97
45565;BMP280;31280;40.408;17.282;2022-12-18T12:42:56;102531.78;;;18.15
45565;BMP280;31280;40.408;17.282;2022-12-18T12:45:52;102533.88;;;18.27
45565;BMP280;31280;40.408;17.282;2022-12-18T12:48:33;102531.56;;;18.06
45565;BMP280;31280;40.408;17.282;2022-12-18T12:51:04;102544.63;;;17.95
45565;BMP280;31280;40.408;17.282;2022-12-18T12:53:37;102540.72;;;17.96
45565;BMP280;31280;40.408;17.282;2022-12-18T12:56:04;102545.50;;;17.92
45565;BMP280;31280;40.408;17.282;2022-12-18T13:06:23;102541.78;;;17.83
45565;BMP280;31280;40.408;17.282;2022-12-18T13:08:56;102549.09;;;17.67
45565;BMP280;31280;40.408;17.282;2022-12-18T13:14:28;102542.94;;;17.82
45565;BMP280;31280;40.408;17.282;2022-12-18T13:17:17;102548.69;;;17.87
45565;BMP280;31280;40.408;17.282;2022-12-18T13:20:13;102542.44;;;17.68
45565;BMP280;31280;40.408;17.282;2022-12-18T13:22:48;102557.03;;;17.58
45565;BMP280;31280;40.408;17.282;2022-12-18T13:25:42;102559.50;;;17.49
45565;BMP280;31280;40.408;17.282;2022-12-18T13:28:21;102553.34;;;17.45
45565;BMP280;31280;40.408;17.282;2022-12-18T13:30:52;102567.22;;;17.54
45565;BMP280;31280;40.408;17.282;2022-12-18T13:36:09;102572.88;;;17.40
45565;BMP280;31280;40.408;17.282;2022-12-18T13:38:39;102574.44;;;17.41
45565;BMP280;31280;40.408;17.282;2022-12-18T13:43:44;102579.66;;;17.55
45565;BMP280;31280;40.408;17.282;2022-12-18T13:46:51;102576.69;;;17.46
45565;BMP280;31280;40.408;17.282;2022-12-18T13:51:54;102579.91;;;17.41
45565;BMP280;31280;40.408;17.282;2022-12-18T13:54:34;102575.34;;;17.35
45565;BMP280;31280;40.408;17.282;2022-12-18T13:57:01;102564.09;;;17.07
45565;BMP280;31280;40.408;17.282;2022-12-18T13:59:36;102572.31;;;17.03
45565;BMP280;31280;40.408;17.282;2022-12-18T14:02:23;102583.38;;;17.19
45565;BMP280;31280;40.408;17.282;2022-12-18T14:04:50;102589.69;;;17.13
45565;BMP280;31280;40.408;17.282;2022-12-18T14:07:20;102591.66;;;17.12
45565;BMP280;31280;40.408;17.282;2022-12-18T14:09:51;102582.09;;;17.01
45565;BMP280;31280;40.408;17.282;2022-12-18T14:15:09;102600.88;;;16.92
45565;BMP280;31280;40.408;17.282;2022-12-18T14:17:42;102582.94;;;16.69
45565;BMP280;31280;40.408;17.282;2022-12-18T14:20:14;102596.44;;;16.75
45565;BMP280;31280;40.408;17.282;2022-12-18T14:22:43;102592.63;;;16.70
45565;BMP280;31280;40.408;17.282;2022-12-18T14:27:51;102588.09;;;16.60
45565;BMP280;31280;40.408;17.282;2022-12-18T14:33:09;102593.59;;;16.56
45565;BMP280;31280;40.408;17.282;2022-12-18T14:35:41;102605.31;;;16.53
45565;BMP280;31280;40.408;17.282;2022-12-18T14:38:20;102613.59;;;16.40
45565;BMP280;31280;40.408;17.282;2022-12-18T14:40:52;102594.88;;;16.12
45565;BMP280;31280;40.408;17.282;2022-12-18T14:43:18;102614.59;;;16.19
45565;BMP280;31280;40.408;17.282;2022-12-18T14:45:44;102606.88;;;16.14
45565;BMP280;31280;40.408;17.282;2022-12-18T14:50:37;102629.88;;;16.07
45565;BMP280;31280;40.408;17.282;2022-12-18T14:53:03;102626.19;;;15.87
45565;BMP280;31280;40.408;17.282;2022-12-18T14:55:29;102631.56;;;15.90
45565;BMP280;31280;40.408;17.282;2022-12-18T14:57:56;102633.97;;;15.85
45565;BMP280;31280;40.408;17.282;2022-12-18T15:00:24;102624.72;;;15.76
45565;BMP280;31280;40.408;17.282;2022-12-18T15:02:54;102638.22;;;15.86
45565;BMP280;31280;40.408;17.282;2022-12-18T15:05:27;102632.41;;;15.84
45565;BMP280;31280;40.408;17.282;2022-12-18T15:07:56;102631.66;;;15.80
45565;BMP280;31280;40.408;17.282;2022-12-18T15:10:28;102645.66;;;15.75
45565;BMP280;31280;40.408;17.282;2022-12-18T15:18:12;102627.28;;;15.46
45565;BMP280;31280;40.408;17.282;2022-12-18T15:23:26;102643.25;;;15.34
45565;BMP280;31280;40.408;17.282;2022-12-18T15:26:05;102654.13;;;15.34
45565;BMP280;31280;40.408;17.282;2022-12-18T15:28:35;102659.16;;;15.35
45565;BMP280;31280;40.408;17.282;2022-12-18T15:31:21;102662.28;;;15.27
45565;BMP280;31280;40.408;17.282;2022-12-18T15:36:21;102668.94;;;15.23
45565;BMP280;31280;40.408;17.282;2022-12-18T15:38:48;102679.38;;;15.24
45565;BMP280;31280;40.408;17.282;2022-12-18T15:41:16;102674.78;;;15.14
45565;BMP280;31280;40.408;17.282;2022-12-18T15:43:44;102644.22;;;14.97
45565;BMP280;31280;40.408;17.282;2022-12-18T15:46:15;102671.69;;;15.12
45565;BMP280;31280;40.408;17.282;2022-12-18T15:48:46;102673.66;;;15.08
45565;BMP280;31280;40.408;17.282;2022-12-18T15:51:26;102672.09;;;15.07
45565;BMP280;31280;40.408;17.282;2022-12-18T15:53:58;102677.19;;;14.99
45565;BMP280;31280;40.408;17.282;2022-12-18T15:56:25;102674.47;;;14.99